Grand Prairie, TX (75052)

9:30 AM CST on February 13, 2016 (GMT -0600)
Westchester | | Change Station
CLOSE
Current Station
Personal Weather Station
Location: Grand Prairie, TX
Elevation: 545 ft
Nearby Weather Stations
Active Advisory: Flood Warning

Elev 545 ft 32.66 °N, 97.02 °W | Updated 9 minutes ago

Clear
Clear
51.1 °F
Feels Like 51.1 °F
N
5.3
Wind Variable Wind from East

Today
High -- | Low -- °F
--% Chance of Precip.
Yesterday
High -- | Low -- °F
Precip. -- in
Pressure 30.42 in
Visibility 10.0 miles
Clouds Clear
Dew Point 36 °F
Humidity 55%
Rainfall 0.00 in
Snow Depth Not available.
7:13 AM 6:11 PM
Waxing Crescent, 31% visible
METAR KGPM 131450Z 05008KT 10SM SKC 08/01 A3042
Pressure 30.42 in
Visibility 10.0 miles
Clouds Clear
Dew Point 36 °F
Humidity 55%
Rainfall 0.00 in
Snow Depth Not available.
7:13 AM 6:11 PM
Waxing Crescent, 31% visible
METAR KGPM 131450Z 05008KT 10SM SKC 08/01 A3042

10-Day Weather Forecast

Almanac

Astronomy

Feb. 13, 2016 Rise Set
Actual Time
Civil Twilight
Nautical Twilight
Astronomical Twilight
Moon
Length of Visible Light
Length of Day
Tomorrow will be .
, % of the Moon is Illuminated

Today's Extremes

State Highs State Lows

Community

WunderPhotos

Upload Photos

1,892,580 photos uploaded!

WunderBlog® & News

Nearby

Air Quality

  Air Quality AQ Index Pollutant
Not available.

Snow Depth

Station Depth Elevation

Earthquake Activity

City Distance Mag. Time & Date
Minimum magnitude displayed is 2.5.

Coastal Water Temperatures

Place Temperature

Stations

Nearby Weather Stations

Station Location Temp. Windchill Dew Point Humidity Wind Precip. Elev Updated Type
                   

Watches & Warnings

Flood Warning
Issued: 8:10 AM CST Feb. 13, 2016 – National Weather Service

The Flood Warning continues for
the Elm Fork Trinity River near Carrollton.
* At 0715 am Saturday the stage was 8.36 feet.
* Flood stage is 8 feet.
* Minor flooding is occurring and minor flooding is forecast.
* Forecast... the river will remain near 8 feet for the next several
days.
* At 8 feet, minor flooding will occur downstream from the gauge.


Lat... Lon 3300 9700 3287 9699 3287 9687 3300 9688